sensor_id;sensor_type;location;lat;lon;timestamp;P1;durP1;ratioP1;P2;durP2;ratioP2
51090;SDS011;37136;43.614;3.908;2023-02-28T00:00:46;3.88;;;3.15;;
51090;SDS011;37136;43.614;3.908;2023-02-28T00:03:12;4.18;;;3.40;;
51090;SDS011;37136;43.614;3.908;2023-02-28T00:05:38;5.15;;;3.80;;
51090;SDS011;37136;43.614;3.908;2023-02-28T00:08:05;4.25;;;3.25;;
51090;SDS011;37136;43.614;3.908;2023-02-28T00:10:31;5.10;;;3.70;;
51090;SDS011;37136;43.614;3.908;2023-02-28T00:13:02;4.30;;;3.33;;
51090;SDS011;37136;43.614;3.908;2023-02-28T00:15:29;4.53;;;3.80;;
51090;SDS011;37136;43.614;3.908;2023-02-28T00:17:55;5.10;;;3.55;;
51090;SDS011;37136;43.614;3.908;2023-02-28T00:20:22;5.32;;;3.72;;
51090;SDS011;37136;43.614;3.908;2023-02-28T00:22:48;3.75;;;3.20;;
51090;SDS011;37136;43.614;3.908;2023-02-28T00:25:16;5.32;;;3.45;;
51090;SDS011;37136;43.614;3.908;2023-02-28T00:27:43;4.43;;;3.53;;
51090;SDS011;37136;43.614;3.908;2023-02-28T00:30:11;8.18;;;3.42;;
51090;SDS011;37136;43.614;3.908;2023-02-28T00:32:37;4.10;;;3.55;;
51090;SDS011;37136;43.614;3.908;2023-02-28T00:35:04;5.93;;;4.13;;
51090;SDS011;37136;43.614;3.908;2023-02-28T00:37:30;5.35;;;3.13;;
51090;SDS011;37136;43.614;3.908;2023-02-28T00:39:57;5.35;;;3.28;;
51090;SDS011;37136;43.614;3.908;2023-02-28T00:42:23;6.03;;;3.85;;
51090;SDS011;37136;43.614;3.908;2023-02-28T00:44:50;5.13;;;3.33;;
51090;SDS011;37136;43.614;3.908;2023-02-28T00:47:16;5.85;;;3.75;;
51090;SDS011;37136;43.614;3.908;2023-02-28T00:49:42;5.10;;;3.58;;
51090;SDS011;37136;43.614;3.908;2023-02-28T00:52:08;5.20;;;3.65;;
51090;SDS011;37136;43.614;3.908;2023-02-28T00:54:34;4.45;;;3.50;;
51090;SDS011;37136;43.614;3.908;2023-02-28T00:57:01;4.93;;;3.55;;
51090;SDS011;37136;43.614;3.908;2023-02-28T00:59:27;4.75;;;3.28;;
51090;SDS011;37136;43.614;3.908;2023-02-28T01:01:53;4.18;;;3.45;;
51090;SDS011;37136;43.614;3.908;2023-02-28T01:04:19;4.88;;;3.78;;
51090;SDS011;37136;43.614;3.908;2023-02-28T01:06:45;4.93;;;3.30;;
51090;SDS011;37136;43.614;3.908;2023-02-28T01:09:11;4.40;;;3.50;;
51090;SDS011;37136;43.614;3.908;2023-02-28T01:11:37;3.92;;;3.15;;
51090;SDS011;37136;43.614;3.908;2023-02-28T01:14:05;3.90;;;3.08;;
51090;SDS011;37136;43.614;3.908;2023-02-28T01:16:31;6.07;;;3.45;;
51090;SDS011;37136;43.614;3.908;2023-02-28T01:18:58;4.15;;;3.05;;
51090;SDS011;37136;43.614;3.908;2023-02-28T01:21:24;4.78;;;3.13;;
51090;SDS011;37136;43.614;3.908;2023-02-28T01:23:50;4.45;;;2.70;;
51090;SDS011;37136;43.614;3.908;2023-02-28T01:26:18;4.32;;;2.80;;
51090;SDS011;37136;43.614;3.908;2023-02-28T01:28:44;6.78;;;3.20;;
51090;SDS011;37136;43.614;3.908;2023-02-28T01:31:11;4.35;;;3.28;;
51090;SDS011;37136;43.614;3.908;2023-02-28T01:33:37;3.90;;;3.10;;
51090;SDS011;37136;43.614;3.908;2023-02-28T01:36:10;4.93;;;3.00;;
51090;SDS011;37136;43.614;3.908;2023-02-28T01:38:37;3.05;;;2.72;;
51090;SDS011;37136;43.614;3.908;2023-02-28T01:41:03;4.32;;;3.05;;
51090;SDS011;37136;43.614;3.908;2023-02-28T01:43:30;3.33;;;2.80;;
51090;SDS011;37136;43.614;3.908;2023-02-28T01:45:58;4.30;;;2.90;;
51090;SDS011;37136;43.614;3.908;2023-02-28T01:48:27;5.07;;;3.08;;
51090;SDS011;37136;43.614;3.908;2023-02-28T01:50:56;4.80;;;3.30;;
51090;SDS011;37136;43.614;3.908;2023-02-28T01:53:26;3.65;;;3.15;;
51090;SDS011;37136;43.614;3.908;2023-02-28T01:55:55;3.03;;;2.67;;
51090;SDS011;37136;43.614;3.908;2023-02-28T01:58:22;3.53;;;2.90;;
51090;SDS011;37136;43.614;3.908;2023-02-28T02:00:49;3.20;;;2.90;;
51090;SDS011;37136;43.614;3.908;2023-02-28T02:03:16;3.65;;;2.80;;
51090;SDS011;37136;43.614;3.908;2023-02-28T02:08:13;4.32;;;3.10;;
51090;SDS011;37136;43.614;3.908;2023-02-28T02:10:42;6.00;;;3.63;;
51090;SDS011;37136;43.614;3.908;2023-02-28T02:21:01;7.32;;;3.20;;
51090;SDS011;37136;43.614;3.908;2023-02-28T02:25:57;3.92;;;2.92;;
51090;SDS011;37136;43.614;3.908;2023-02-28T02:31:22;3.40;;;2.63;;
51090;SDS011;37136;43.614;3.908;2023-02-28T02:36:47;4.63;;;3.10;;
51090;SDS011;37136;43.614;3.908;2023-02-28T02:39:16;5.85;;;3.05;;
51090;SDS011;37136;43.614;3.908;2023-02-28T02:46:44;5.30;;;3.47;;
51090;SDS011;37136;43.614;3.908;2023-02-28T02:49:13;4.05;;;3.05;;
51090;SDS011;37136;43.614;3.908;2023-02-28T02:51:40;3.55;;;3.10;;
51090;SDS011;37136;43.614;3.908;2023-02-28T02:56:36;4.10;;;3.20;;
51090;SDS011;37136;43.614;3.908;2023-02-28T02:59:07;5.68;;;3.60;;
51090;SDS011;37136;43.614;3.908;2023-02-28T03:01:35;5.50;;;3.15;;
51090;SDS011;37136;43.614;3.908;2023-02-28T03:04:11;3.70;;;2.72;;
51090;SDS011;37136;43.614;3.908;2023-02-28T03:06:39;3.40;;;2.92;;
51090;SDS011;37136;43.614;3.908;2023-02-28T03:09:05;3.25;;;2.85;;
51090;SDS011;37136;43.614;3.908;2023-02-28T03:11:32;5.72;;;3.20;;
51090;SDS011;37136;43.614;3.908;2023-02-28T03:14:15;3.38;;;3.08;;
51090;SDS011;37136;43.614;3.908;2023-02-28T03:25:16;5.13;;;3.25;;
51090;SDS011;37136;43.614;3.908;2023-02-28T03:30:51;3.33;;;2.92;;
51090;SDS011;37136;43.614;3.908;2023-02-28T03:33:23;3.63;;;2.80;;
51090;SDS011;37136;43.614;3.908;2023-02-28T03:35:51;5.30;;;3.15;;
51090;SDS011;37136;43.614;3.908;2023-02-28T03:38:24;4.07;;;2.77;;
51090;SDS011;37136;43.614;3.908;2023-02-28T03:40:54;4.32;;;2.95;;
51090;SDS011;37136;43.614;3.908;2023-02-28T03:43:23;10.63;;;3.30;;
51090;SDS011;37136;43.614;3.908;2023-02-28T03:50:47;5.57;;;3.20;;
51090;SDS011;37136;43.614;3.908;2023-02-28T03:58:24;6.97;;;3.00;;
51090;SDS011;37136;43.614;3.908;2023-02-28T04:00:55;3.72;;;2.85;;
51090;SDS011;37136;43.614;3.908;2023-02-28T04:03:23;4.53;;;2.97;;
51090;SDS011;37136;43.614;3.908;2023-02-28T04:05:52;4.30;;;2.97;;
51090;SDS011;37136;43.614;3.908;2023-02-28T04:08:19;4.90;;;3.38;;
51090;SDS011;37136;43.614;3.908;2023-02-28T04:10:47;4.47;;;3.38;;
51090;SDS011;37136;43.614;3.908;2023-02-28T04:13:15;3.40;;;2.63;;
51090;SDS011;37136;43.614;3.908;2023-02-28T04:15:41;4.50;;;3.20;;
51090;SDS011;37136;43.614;3.908;2023-02-28T04:18:08;3.83;;;3.42;;
51090;SDS011;37136;43.614;3.908;2023-02-28T04:20:34;4.63;;;3.10;;
51090;SDS011;37136;43.614;3.908;2023-02-28T04:23:00;4.15;;;3.53;;
51090;SDS011;37136;43.614;3.908;2023-02-28T04:25:26;4.22;;;3.30;;
51090;SDS011;37136;43.614;3.908;2023-02-28T04:27:52;3.53;;;2.90;;
51090;SDS011;37136;43.614;3.908;2023-02-28T04:30:18;5.10;;;3.53;;
51090;SDS011;37136;43.614;3.908;2023-02-28T04:32:44;7.38;;;4.60;;
51090;SDS011;37136;43.614;3.908;2023-02-28T04:35:10;9.55;;;4.72;;
51090;SDS011;37136;43.614;3.908;2023-02-28T04:37:36;7.72;;;4.80;;
51090;SDS011;37136;43.614;3.908;2023-02-28T04:40:03;6.38;;;4.10;;
51090;SDS011;37136;43.614;3.908;2023-02-28T04:42:29;5.53;;;4.05;;
51090;SDS011;37136;43.614;3.908;2023-02-28T04:45:00;9.18;;;4.95;;
51090;SDS011;37136;43.614;3.908;2023-02-28T04:47:26;11.50;;;5.68;;
51090;SDS011;37136;43.614;3.908;2023-02-28T04:49:53;7.10;;;4.25;;
51090;SDS011;37136;43.614;3.908;2023-02-28T04:52:19;6.45;;;4.00;;
51090;SDS011;37136;43.614;3.908;2023-02-28T04:54:45;6.43;;;4.28;;
51090;SDS011;37136;43.614;3.908;2023-02-28T04:57:11;7.53;;;4.65;;
51090;SDS011;37136;43.614;3.908;2023-02-28T04:59:37;7.25;;;4.57;;
51090;SDS011;37136;43.614;3.908;2023-02-28T05:02:03;7.88;;;4.53;;
51090;SDS011;37136;43.614;3.908;2023-02-28T05:04:34;8.10;;;5.00;;
51090;SDS011;37136;43.614;3.908;2023-02-28T05:07:00;5.28;;;4.50;;
51090;SDS011;37136;43.614;3.908;2023-02-28T05:09:27;5.88;;;4.78;;
51090;SDS011;37136;43.614;3.908;2023-02-28T05:11:53;6.25;;;4.63;;
51090;SDS011;37136;43.614;3.908;2023-02-28T05:14:19;5.70;;;4.68;;
51090;SDS011;37136;43.614;3.908;2023-02-28T05:16:46;6.68;;;4.80;;
51090;SDS011;37136;43.614;3.908;2023-02-28T05:19:12;7.82;;;4.55;;
51090;SDS011;37136;43.614;3.908;2023-02-28T05:21:41;5.82;;;4.20;;
51090;SDS011;37136;43.614;3.908;2023-02-28T05:24:14;5.40;;;4.50;;
51090;SDS011;37136;43.614;3.908;2023-02-28T05:26:47;6.63;;;4.45;;
51090;SDS011;37136;43.614;3.908;2023-02-28T05:29:14;7.13;;;5.07;;
51090;SDS011;37136;43.614;3.908;2023-02-28T05:31:40;9.50;;;5.05;;
51090;SDS011;37136;43.614;3.908;2023-02-28T05:34:07;6.28;;;4.72;;
51090;SDS011;37136;43.614;3.908;2023-02-28T05:36:33;7.78;;;5.00;;
51090;SDS011;37136;43.614;3.908;2023-02-28T05:38:59;6.55;;;4.32;;
51090;SDS011;37136;43.614;3.908;2023-02-28T05:41:25;6.85;;;4.38;;
51090;SDS011;37136;43.614;3.908;2023-02-28T05:43:51;7.82;;;5.40;;
51090;SDS011;37136;43.614;3.908;2023-02-28T05:46:17;7.82;;;4.93;;
51090;SDS011;37136;43.614;3.908;2023-02-28T05:48:45;7.65;;;4.63;;
51090;SDS011;37136;43.614;3.908;2023-02-28T05:51:11;6.05;;;4.63;;
51090;SDS011;37136;43.614;3.908;2023-02-28T05:53:37;6.00;;;4.20;;
51090;SDS011;37136;43.614;3.908;2023-02-28T05:56:04;6.53;;;5.00;;
51090;SDS011;37136;43.614;3.908;2023-02-28T05:58:30;10.38;;;5.50;;
51090;SDS011;37136;43.614;3.908;2023-02-28T06:00:57;10.68;;;4.75;;
51090;SDS011;37136;43.614;3.908;2023-02-28T06:03:23;6.93;;;5.22;;
51090;SDS011;37136;43.614;3.908;2023-02-28T06:05:50;8.20;;;5.00;;
51090;SDS011;37136;43.614;3.908;2023-02-28T06:08:16;6.35;;;4.95;;
51090;SDS011;37136;43.614;3.908;2023-02-28T06:10:42;6.75;;;5.00;;
51090;SDS011;37136;43.614;3.908;2023-02-28T06:13:08;10.20;;;5.80;;
51090;SDS011;37136;43.614;3.908;2023-02-28T06:15:34;7.65;;;5.60;;
51090;SDS011;37136;43.614;3.908;2023-02-28T06:18:00;7.82;;;5.60;;
51090;SDS011;37136;43.614;3.908;2023-02-28T06:20:27;8.00;;;5.57;;
51090;SDS011;37136;43.614;3.908;2023-02-28T06:22:56;12.90;;;6.15;;
51090;SDS011;37136;43.614;3.908;2023-02-28T06:25:26;7.75;;;5.95;;
51090;SDS011;37136;43.614;3.908;2023-02-28T06:27:53;9.13;;;5.70;;
51090;SDS011;37136;43.614;3.908;2023-02-28T06:30:19;8.35;;;4.93;;
51090;SDS011;37136;43.614;3.908;2023-02-28T06:32:49;7.28;;;5.57;;
51090;SDS011;37136;43.614;3.908;2023-02-28T06:35:15;8.52;;;5.18;;
51090;SDS011;37136;43.614;3.908;2023-02-28T06:37:42;5.93;;;4.93;;
51090;SDS011;37136;43.614;3.908;2023-02-28T06:40:09;9.77;;;5.38;;
51090;SDS011;37136;43.614;3.908;2023-02-28T06:42:35;10.70;;;5.20;;
51090;SDS011;37136;43.614;3.908;2023-02-28T06:45:01;8.07;;;5.10;;
51090;SDS011;37136;43.614;3.908;2023-02-28T06:47:34;9.30;;;5.72;;
51090;SDS011;37136;43.614;3.908;2023-02-28T06:50:00;10.52;;;5.57;;
51090;SDS011;37136;43.614;3.908;2023-02-28T06:52:26;8.07;;;5.22;;
51090;SDS011;37136;43.614;3.908;2023-02-28T06:54:52;7.13;;;5.60;;
51090;SDS011;37136;43.614;3.908;2023-02-28T06:57:28;9.80;;;5.65;;
51090;SDS011;37136;43.614;3.908;2023-02-28T06:59:57;12.07;;;5.28;;
51090;SDS011;37136;43.614;3.908;2023-02-28T07:02:23;8.63;;;6.15;;
51090;SDS011;37136;43.614;3.908;2023-02-28T07:04:49;9.57;;;6.18;;
51090;SDS011;37136;43.614;3.908;2023-02-28T07:07:15;11.25;;;6.30;;
51090;SDS011;37136;43.614;3.908;2023-02-28T07:09:41;12.27;;;6.57;;
51090;SDS011;37136;43.614;3.908;2023-02-28T07:12:07;10.07;;;6.72;;
51090;SDS011;37136;43.614;3.908;2023-02-28T07:14:33;10.02;;;6.43;;
51090;SDS011;37136;43.614;3.908;2023-02-28T07:16:59;7.97;;;5.82;;
51090;SDS011;37136;43.614;3.908;2023-02-28T07:19:25;9.48;;;6.20;;
51090;SDS011;37136;43.614;3.908;2023-02-28T07:21:52;10.00;;;5.82;;
51090;SDS011;37136;43.614;3.908;2023-02-28T07:24:18;9.60;;;6.00;;
51090;SDS011;37136;43.614;3.908;2023-02-28T07:26:44;7.32;;;5.95;;
51090;SDS011;37136;43.614;3.908;2023-02-28T07:29:13;8.57;;;5.85;;
51090;SDS011;37136;43.614;3.908;2023-02-28T07:31:39;7.68;;;6.53;;
51090;SDS011;37136;43.614;3.908;2023-02-28T07:34:05;8.88;;;6.22;;
51090;SDS011;37136;43.614;3.908;2023-02-28T07:36:31;9.05;;;5.72;;
51090;SDS011;37136;43.614;3.908;2023-02-28T07:38:57;10.55;;;7.05;;
51090;SDS011;37136;43.614;3.908;2023-02-28T07:41:24;8.73;;;5.60;;
51090;SDS011;37136;43.614;3.908;2023-02-28T07:43:55;8.35;;;6.15;;
51090;SDS011;37136;43.614;3.908;2023-02-28T07:46:24;8.77;;;6.10;;
51090;SDS011;37136;43.614;3.908;2023-02-28T07:48:50;9.00;;;6.57;;
51090;SDS011;37136;43.614;3.908;2023-02-28T07:51:17;12.18;;;6.97;;
51090;SDS011;37136;43.614;3.908;2023-02-28T07:53:44;9.52;;;6.38;;
51090;SDS011;37136;43.614;3.908;2023-02-28T07:56:10;8.93;;;6.53;;
51090;SDS011;37136;43.614;3.908;2023-02-28T07:58:36;8.68;;;5.70;;
51090;SDS011;37136;43.614;3.908;2023-02-28T08:01:06;9.35;;;6.53;;
51090;SDS011;37136;43.614;3.908;2023-02-28T08:03:33;9.38;;;6.65;;
51090;SDS011;37136;43.614;3.908;2023-02-28T08:06:00;12.43;;;7.68;;
51090;SDS011;37136;43.614;3.908;2023-02-28T08:08:27;7.18;;;6.15;;
51090;SDS011;37136;43.614;3.908;2023-02-28T08:11:00;8.48;;;6.78;;
51090;SDS011;37136;43.614;3.908;2023-02-28T08:13:26;8.65;;;6.47;;
51090;SDS011;37136;43.614;3.908;2023-02-28T08:15:53;8.85;;;6.15;;
51090;SDS011;37136;43.614;3.908;2023-02-28T08:18:20;7.13;;;6.00;;
51090;SDS011;37136;43.614;3.908;2023-02-28T08:20:46;10.20;;;6.50;;
51090;SDS011;37136;43.614;3.908;2023-02-28T08:23:12;12.30;;;7.28;;
51090;SDS011;37136;43.614;3.908;2023-02-28T08:25:39;12.68;;;9.07;;
51090;SDS011;37136;43.614;3.908;2023-02-28T08:28:05;11.07;;;7.72;;
51090;SDS011;37136;43.614;3.908;2023-02-28T08:30:31;13.32;;;7.53;;
51090;SDS011;37136;43.614;3.908;2023-02-28T08:32:57;14.32;;;7.90;;
51090;SDS011;37136;43.614;3.908;2023-02-28T08:35:23;9.43;;;7.05;;
51090;SDS011;37136;43.614;3.908;2023-02-28T08:37:49;9.52;;;7.15;;
51090;SDS011;37136;43.614;3.908;2023-02-28T08:40:16;15.77;;;7.75;;
51090;SDS011;37136;43.614;3.908;2023-02-28T08:42:45;10.38;;;7.32;;
51090;SDS011;37136;43.614;3.908;2023-02-28T08:45:12;13.32;;;7.30;;
51090;SDS011;37136;43.614;3.908;2023-02-28T08:47:38;10.18;;;7.32;;
51090;SDS011;37136;43.614;3.908;2023-02-28T08:50:04;13.38;;;8.15;;
51090;SDS011;37136;43.614;3.908;2023-02-28T08:52:30;9.35;;;7.28;;
51090;SDS011;37136;43.614;3.908;2023-02-28T08:54:56;9.65;;;7.30;;
51090;SDS011;37136;43.614;3.908;2023-02-28T08:57:22;9.85;;;7.00;;
51090;SDS011;37136;43.614;3.908;2023-02-28T08:59:51;9.73;;;6.67;;
51090;SDS011;37136;43.614;3.908;2023-02-28T09:02:17;10.50;;;5.55;;
51090;SDS011;37136;43.614;3.908;2023-02-28T09:04:43;10.30;;;5.80;;
51090;SDS011;37136;43.614;3.908;2023-02-28T09:09:38;5.90;;;5.30;;
51090;SDS011;37136;43.614;3.908;2023-02-28T09:12:19;7.18;;;5.78;;
51090;SDS011;37136;43.614;3.908;2023-02-28T09:14:45;9.00;;;5.97;;
51090;SDS011;37136;43.614;3.908;2023-02-28T09:17:11;9.48;;;6.63;;
51090;SDS011;37136;43.614;3.908;2023-02-28T09:19:37;21.20;;;6.00;;
51090;SDS011;37136;43.614;3.908;2023-02-28T09:22:03;8.10;;;5.55;;
51090;SDS011;37136;43.614;3.908;2023-02-28T09:24:29;5.85;;;4.57;;
51090;SDS011;37136;43.614;3.908;2023-02-28T09:26:56;6.10;;;5.07;;
51090;SDS011;37136;43.614;3.908;2023-02-28T09:29:22;7.55;;;5.07;;
51090;SDS011;37136;43.614;3.908;2023-02-28T09:31:49;7.82;;;5.18;;
51090;SDS011;37136;43.614;3.908;2023-02-28T09:34:15;7.30;;;5.00;;
51090;SDS011;37136;43.614;3.908;2023-02-28T09:36:42;6.57;;;5.13;;
51090;SDS011;37136;43.614;3.908;2023-02-28T09:39:08;9.75;;;5.50;;
51090;SDS011;37136;43.614;3.908;2023-02-28T09:41:38;12.30;;;5.28;;
51090;SDS011;37136;43.614;3.908;2023-02-28T09:44:13;11.35;;;5.30;;
51090;SDS011;37136;43.614;3.908;2023-02-28T09:46:43;8.98;;;5.95;;
51090;SDS011;37136;43.614;3.908;2023-02-28T09:49:11;9.13;;;6.07;;
51090;SDS011;37136;43.614;3.908;2023-02-28T09:54:18;10.95;;;5.38;;
51090;SDS011;37136;43.614;3.908;2023-02-28T09:56:50;6.85;;;5.82;;
51090;SDS011;37136;43.614;3.908;2023-02-28T09:59:29;8.40;;;5.03;;
51090;SDS011;37136;43.614;3.908;2023-02-28T10:10:03;6.88;;;5.78;;
51090;SDS011;37136;43.614;3.908;2023-02-28T10:14:58;14.80;;;6.28;;
51090;SDS011;37136;43.614;3.908;2023-02-28T10:17:26;6.97;;;5.28;;
51090;SDS011;37136;43.614;3.908;2023-02-28T10:19:58;7.60;;;5.20;;
51090;SDS011;37136;43.614;3.908;2023-02-28T10:25:11;8.45;;;5.05;;
51090;SDS011;37136;43.614;3.908;2023-02-28T10:27:42;9.18;;;5.35;;
51090;SDS011;37136;43.614;3.908;2023-02-28T10:30:09;7.30;;;4.55;;
51090;SDS011;37136;43.614;3.908;2023-02-28T10:32:35;5.63;;;4.65;;
51090;SDS011;37136;43.614;3.908;2023-02-28T10:37:44;5.10;;;4.43;;
51090;SDS011;37136;43.614;3.908;2023-02-28T10:42:39;6.95;;;4.78;;
51090;SDS011;37136;43.614;3.908;2023-02-28T10:47:48;6.82;;;4.22;;
51090;SDS011;37136;43.614;3.908;2023-02-28T10:55:44;9.23;;;4.60;;
51090;SDS011;37136;43.614;3.908;2023-02-28T10:58:23;6.28;;;4.57;;
51090;SDS011;37136;43.614;3.908;2023-02-28T11:00:49;5.43;;;4.50;;
51090;SDS011;37136;43.614;3.908;2023-02-28T11:03:23;6.25;;;4.88;;
51090;SDS011;37136;43.614;3.908;2023-02-28T11:05:50;6.35;;;4.05;;
51090;SDS011;37136;43.614;3.908;2023-02-28T11:08:17;5.68;;;4.07;;
51090;SDS011;37136;43.614;3.908;2023-02-28T11:10:47;4.50;;;3.97;;
51090;SDS011;37136;43.614;3.908;2023-02-28T11:13:17;4.78;;;4.07;;
51090;SDS011;37136;43.614;3.908;2023-02-28T11:15:46;4.57;;;4.10;;
51090;SDS011;37136;43.614;3.908;2023-02-28T11:18:22;12.32;;;5.25;;
51090;SDS011;37136;43.614;3.908;2023-02-28T11:20:50;7.18;;;4.10;;
51090;SDS011;37136;43.614;3.908;2023-02-28T11:23:17;6.55;;;4.25;;
51090;SDS011;37136;43.614;3.908;2023-02-28T11:25:49;6.00;;;4.22;;
51090;SDS011;37136;43.614;3.908;2023-02-28T11:31:02;5.30;;;4.13;;
51090;SDS011;37136;43.614;3.908;2023-02-28T11:33:29;5.13;;;4.22;;
51090;SDS011;37136;43.614;3.908;2023-02-28T11:36:04;8.98;;;3.90;;
51090;SDS011;37136;43.614;3.908;2023-02-28T11:38:34;4.50;;;3.97;;
51090;SDS011;37136;43.614;3.908;2023-02-28T11:41:45;5.40;;;4.30;;
51090;SDS011;37136;43.614;3.908;2023-02-28T11:43:53;8.05;;;4.13;;
51090;SDS011;37136;43.614;3.908;2023-02-28T11:46:33;5.38;;;4.38;;
51090;SDS011;37136;43.614;3.908;2023-02-28T11:51:34;4.50;;;3.65;;
51090;SDS011;37136;43.614;3.908;2023-02-28T11:57:09;5.43;;;4.10;;
51090;SDS011;37136;43.614;3.908;2023-02-28T12:04:35;5.32;;;3.63;;
51090;SDS011;37136;43.614;3.908;2023-02-28T12:12:21;3.67;;;3.22;;
51090;SDS011;37136;43.614;3.908;2023-02-28T12:14:50;10.20;;;4.25;;
51090;SDS011;37136;43.614;3.908;2023-02-28T12:24:55;5.32;;;3.80;;
51090;SDS011;37136;43.614;3.908;2023-02-28T12:27:25;4.78;;;3.28;;
51090;SDS011;37136;43.614;3.908;2023-02-28T12:32:43;5.18;;;3.70;;
51090;SDS011;37136;43.614;3.908;2023-02-28T12:40:08;5.07;;;4.00;;
51090;SDS011;37136;43.614;3.908;2023-02-28T12:42:38;4.40;;;3.22;;
51090;SDS011;37136;43.614;3.908;2023-02-28T12:47:38;5.05;;;3.80;;
51090;SDS011;37136;43.614;3.908;2023-02-28T12:50:08;3.85;;;3.30;;
51090;SDS011;37136;43.614;3.908;2023-02-28T12:55:07;4.30;;;3.17;;
51090;SDS011;37136;43.614;3.908;2023-02-28T12:57:42;5.72;;;3.60;;
51090;SDS011;37136;43.614;3.908;2023-02-28T13:00:19;8.68;;;3.55;;
51090;SDS011;37136;43.614;3.908;2023-02-28T13:14:01;4.75;;;4.25;;
51090;SDS011;37136;43.614;3.908;2023-02-28T13:16:27;8.18;;;4.80;;
51090;SDS011;37136;43.614;3.908;2023-02-28T13:19:07;6.60;;;4.27;;
51090;SDS011;37136;43.614;3.908;2023-02-28T13:21:41;9.43;;;4.60;;
51090;SDS011;37136;43.614;3.908;2023-02-28T13:24:08;8.13;;;4.25;;
51090;SDS011;37136;43.614;3.908;2023-02-28T13:34:20;5.30;;;4.30;;
51090;SDS011;37136;43.614;3.908;2023-02-28T13:36:46;6.32;;;4.50;;
51090;SDS011;37136;43.614;3.908;2023-02-28T13:39:55;6.45;;;4.30;;
51090;SDS011;37136;43.614;3.908;2023-02-28T13:42:22;5.90;;;3.88;;
51090;SDS011;37136;43.614;3.908;2023-02-28T13:58:24;5.50;;;3.63;;
51090;SDS011;37136;43.614;3.908;2023-02-28T14:06:14;6.00;;;3.47;;
51090;SDS011;37136;43.614;3.908;2023-02-28T14:11:32;15.95;;;3.45;;
51090;SDS011;37136;43.614;3.908;2023-02-28T14:13:59;4.80;;;3.78;;
51090;SDS011;37136;43.614;3.908;2023-02-28T14:16:26;5.45;;;3.28;;
51090;SDS011;37136;43.614;3.908;2023-02-28T14:18:58;5.90;;;3.85;;
51090;SDS011;37136;43.614;3.908;2023-02-28T14:21:30;4.20;;;3.33;;
51090;SDS011;37136;43.614;3.908;2023-02-28T14:29:18;4.20;;;3.50;;
51090;SDS011;37136;43.614;3.908;2023-02-28T14:37:05;5.00;;;4.15;;
51090;SDS011;37136;43.614;3.908;2023-02-28T14:39:33;4.82;;;3.75;;
51090;SDS011;37136;43.614;3.908;2023-02-28T14:42:00;4.90;;;3.85;;
51090;SDS011;37136;43.614;3.908;2023-02-28T14:44:29;4.40;;;3.47;;
51090;SDS011;37136;43.614;3.908;2023-02-28T14:46:59;3.95;;;3.53;;
51090;SDS011;37136;43.614;3.908;2023-02-28T14:49:36;4.05;;;3.63;;
51090;SDS011;37136;43.614;3.908;2023-02-28T14:57:39;4.43;;;3.50;;
51090;SDS011;37136;43.614;3.908;2023-02-28T15:00:14;9.52;;;3.60;;
51090;SDS011;37136;43.614;3.908;2023-02-28T15:02:40;6.70;;;3.47;;
51090;SDS011;37136;43.614;3.908;2023-02-28T15:07:35;5.18;;;3.63;;
51090;SDS011;37136;43.614;3.908;2023-02-28T15:15:19;5.55;;;3.45;;
51090;SDS011;37136;43.614;3.908;2023-02-28T15:17:46;9.02;;;2.83;;
51090;SDS011;37136;43.614;3.908;2023-02-28T15:20:14;4.07;;;3.22;;
51090;SDS011;37136;43.614;3.908;2023-02-28T15:22:40;8.55;;;5.25;;
51090;SDS011;37136;43.614;3.908;2023-02-28T15:25:07;8.65;;;4.93;;
51090;SDS011;37136;43.614;3.908;2023-02-28T15:27:38;7.43;;;5.13;;
51090;SDS011;37136;43.614;3.908;2023-02-28T15:30:06;7.25;;;5.25;;
51090;SDS011;37136;43.614;3.908;2023-02-28T15:32:35;6.28;;;5.03;;
51090;SDS011;37136;43.614;3.908;2023-02-28T15:37:56;8.93;;;5.30;;
51090;SDS011;37136;43.614;3.908;2023-02-28T15:45:38;8.88;;;5.15;;
51090;SDS011;37136;43.614;3.908;2023-02-28T15:48:12;10.75;;;5.22;;
51090;SDS011;37136;43.614;3.908;2023-02-28T15:50:39;10.45;;;5.60;;
51090;SDS011;37136;43.614;3.908;2023-02-28T15:53:08;5.47;;;4.45;;
51090;SDS011;37136;43.614;3.908;2023-02-28T15:55:38;8.50;;;5.63;;
51090;SDS011;37136;43.614;3.908;2023-02-28T15:58:04;10.35;;;4.68;;
51090;SDS011;37136;43.614;3.908;2023-02-28T16:00:31;10.90;;;4.93;;
51090;SDS011;37136;43.614;3.908;2023-02-28T16:02:58;7.68;;;5.20;;
51090;SDS011;37136;43.614;3.908;2023-02-28T16:05:26;8.38;;;5.72;;
51090;SDS011;37136;43.614;3.908;2023-02-28T16:08:00;8.85;;;5.45;;
51090;SDS011;37136;43.614;3.908;2023-02-28T16:10:27;8.50;;;5.32;;
51090;SDS011;37136;43.614;3.908;2023-02-28T16:12:55;9.82;;;5.45;;
51090;SDS011;37136;43.614;3.908;2023-02-28T16:15:25;7.18;;;5.60;;
51090;SDS011;37136;43.614;3.908;2023-02-28T16:17:53;9.73;;;5.28;;
51090;SDS011;37136;43.614;3.908;2023-02-28T16:20:24;8.43;;;5.72;;
51090;SDS011;37136;43.614;3.908;2023-02-28T16:22:51;6.75;;;4.90;;
51090;SDS011;37136;43.614;3.908;2023-02-28T16:25:19;11.25;;;5.28;;
51090;SDS011;37136;43.614;3.908;2023-02-28T16:27:46;8.75;;;5.38;;
51090;SDS011;37136;43.614;3.908;2023-02-28T16:30:22;8.02;;;5.53;;
51090;SDS011;37136;43.614;3.908;2023-02-28T16:32:48;9.73;;;5.68;;
51090;SDS011;37136;43.614;3.908;2023-02-28T16:35:15;7.75;;;5.20;;
51090;SDS011;37136;43.614;3.908;2023-02-28T16:37:43;7.40;;;4.63;;
51090;SDS011;37136;43.614;3.908;2023-02-28T16:40:19;7.40;;;5.43;;
51090;SDS011;37136;43.614;3.908;2023-02-28T16:42:46;8.75;;;5.50;;
51090;SDS011;37136;43.614;3.908;2023-02-28T16:45:21;10.30;;;6.13;;
51090;SDS011;37136;43.614;3.908;2023-02-28T16:47:47;9.45;;;5.53;;
51090;SDS011;37136;43.614;3.908;2023-02-28T16:50:17;7.95;;;5.93;;
51090;SDS011;37136;43.614;3.908;2023-02-28T16:52:44;7.50;;;5.93;;
51090;SDS011;37136;43.614;3.908;2023-02-28T16:55:10;10.90;;;6.07;;
51090;SDS011;37136;43.614;3.908;2023-02-28T16:57:36;9.90;;;5.85;;
51090;SDS011;37136;43.614;3.908;2023-02-28T17:00:03;8.07;;;6.43;;
51090;SDS011;37136;43.614;3.908;2023-02-28T17:02:32;7.28;;;5.95;;
51090;SDS011;37136;43.614;3.908;2023-02-28T17:04:58;7.75;;;5.72;;
51090;SDS011;37136;43.614;3.908;2023-02-28T17:07:24;10.52;;;6.53;;
51090;SDS011;37136;43.614;3.908;2023-02-28T17:09:51;7.45;;;5.78;;
51090;SDS011;37136;43.614;3.908;2023-02-28T17:12:17;12.65;;;6.57;;
51090;SDS011;37136;43.614;3.908;2023-02-28T17:14:43;7.22;;;5.88;;
51090;SDS011;37136;43.614;3.908;2023-02-28T17:17:19;15.90;;;8.40;;
51090;SDS011;37136;43.614;3.908;2023-02-28T17:19:47;9.18;;;5.82;;
51090;SDS011;37136;43.614;3.908;2023-02-28T17:22:13;9.00;;;6.25;;
51090;SDS011;37136;43.614;3.908;2023-02-28T17:24:39;8.98;;;6.28;;
51090;SDS011;37136;43.614;3.908;2023-02-28T17:27:05;7.13;;;6.05;;
51090;SDS011;37136;43.614;3.908;2023-02-28T17:29:33;9.85;;;5.82;;
51090;SDS011;37136;43.614;3.908;2023-02-28T17:31:59;8.43;;;6.30;;
51090;SDS011;37136;43.614;3.908;2023-02-28T17:34:25;9.25;;;6.15;;
51090;SDS011;37136;43.614;3.908;2023-02-28T17:36:51;11.02;;;6.78;;
51090;SDS011;37136;43.614;3.908;2023-02-28T17:39:18;9.13;;;7.00;;
51090;SDS011;37136;43.614;3.908;2023-02-28T17:41:54;10.52;;;7.07;;
51090;SDS011;37136;43.614;3.908;2023-02-28T17:44:20;11.70;;;6.78;;
51090;SDS011;37136;43.614;3.908;2023-02-28T17:46:48;9.27;;;7.22;;
51090;SDS011;37136;43.614;3.908;2023-02-28T17:49:17;10.30;;;7.38;;
51090;SDS011;37136;43.614;3.908;2023-02-28T17:51:44;10.32;;;6.95;;
51090;SDS011;37136;43.614;3.908;2023-02-28T17:54:10;13.48;;;6.68;;
51090;SDS011;37136;43.614;3.908;2023-02-28T17:56:36;11.40;;;7.03;;
51090;SDS011;37136;43.614;3.908;2023-02-28T17:59:02;11.18;;;7.13;;
51090;SDS011;37136;43.614;3.908;2023-02-28T18:01:28;11.63;;;6.50;;